sensor_id;sensor_type;location;lat;lon;timestamp;temperature;humidity
40932;DHT22;36257;46.052;12.540;2023-04-03T00:01:01;10.40;91.70
40932;DHT22;36257;46.052;12.540;2023-04-03T00:03:27;10.40;91.50
40932;DHT22;36257;46.052;12.540;2023-04-03T00:05:53;10.50;91.40
40932;DHT22;36257;46.052;12.540;2023-04-03T00:08:19;10.40;91.40
40932;DHT22;36257;46.052;12.540;2023-04-03T00:10:45;10.40;91.60
40932;DHT22;36257;46.052;12.540;2023-04-03T00:13:10;10.40;91.60
40932;DHT22;36257;46.052;12.540;2023-04-03T00:15:37;10.40;91.70
40932;DHT22;36257;46.052;12.540;2023-04-03T00:18:04;10.40;91.70
40932;DHT22;36257;46.052;12.540;2023-04-03T00:20:30;10.30;91.90
40932;DHT22;36257;46.052;12.540;2023-04-03T00:22:55;10.20;92.20
40932;DHT22;36257;46.052;12.540;2023-04-03T00:25:21;10.10;92.40
40932;DHT22;36257;46.052;12.540;2023-04-03T00:27:47;10.20;92.40
40932;DHT22;36257;46.052;12.540;2023-04-03T00:30:17;10.10;92.60
40932;DHT22;36257;46.052;12.540;2023-04-03T00:32:43;10.10;92.80
40932;DHT22;36257;46.052;12.540;2023-04-03T00:35:09;10.00;92.60
40932;DHT22;36257;46.052;12.540;2023-04-03T00:37:35;10.00;92.70
40932;DHT22;36257;46.052;12.540;2023-04-03T00:40:02;10.00;92.60
40932;DHT22;36257;46.052;12.540;2023-04-03T00:42:28;10.00;92.70
40932;DHT22;36257;46.052;12.540;2023-04-03T00:47:23;9.80;93.10
40932;DHT22;36257;46.052;12.540;2023-04-03T00:49:50;9.80;93.40
40932;DHT22;36257;46.052;12.540;2023-04-03T00:52:20;9.70;93.60
40932;DHT22;36257;46.052;12.540;2023-04-03T00:54:49;9.60;93.80
40932;DHT22;36257;46.052;12.540;2023-04-03T00:57:16;9.50;94.00
40932;DHT22;36257;46.052;12.540;2023-04-03T00:59:51;9.50;94.20
40932;DHT22;36257;46.052;12.540;2023-04-03T01:02:18;9.40;94.50
40932;DHT22;36257;46.052;12.540;2023-04-03T01:04:44;9.30;94.70
40932;DHT22;36257;46.052;12.540;2023-04-03T01:07:20;9.40;94.30
40932;DHT22;36257;46.052;12.540;2023-04-03T01:09:48;9.40;93.60
40932;DHT22;36257;46.052;12.540;2023-04-03T01:12:22;9.40;93.50
40932;DHT22;36257;46.052;12.540;2023-04-03T01:14:54;9.30;93.60
40932;DHT22;36257;46.052;12.540;2023-04-03T01:22:49;9.30;93.60
40932;DHT22;36257;46.052;12.540;2023-04-03T01:25:19;9.20;93.50
40932;DHT22;36257;46.052;12.540;2023-04-03T01:27:45;9.20;93.60
40932;DHT22;36257;46.052;12.540;2023-04-03T01:30:12;9.20;93.50
40932;DHT22;36257;46.052;12.540;2023-04-03T01:32:38;9.20;93.70
40932;DHT22;36257;46.052;12.540;2023-04-03T01:35:04;9.10;93.90
40932;DHT22;36257;46.052;12.540;2023-04-03T01:37:32;9.10;94.10
40932;DHT22;36257;46.052;12.540;2023-04-03T01:39:57;9.00;94.60
40932;DHT22;36257;46.052;12.540;2023-04-03T01:42:23;9.00;94.90
40932;DHT22;36257;46.052;12.540;2023-04-03T01:44:49;9.00;94.90
40932;DHT22;36257;46.052;12.540;2023-04-03T01:47:14;8.90;95.10
40932;DHT22;36257;46.052;12.540;2023-04-03T01:49:40;8.90;95.10
40932;DHT22;36257;46.052;12.540;2023-04-03T01:52:05;8.80;95.40
40932;DHT22;36257;46.052;12.540;2023-04-03T01:54:31;8.70;95.80
40932;DHT22;36257;46.052;12.540;2023-04-03T01:56:57;8.80;95.70
40932;DHT22;36257;46.052;12.540;2023-04-03T01:59:22;8.80;95.20
40932;DHT22;36257;46.052;12.540;2023-04-03T02:01:48;8.90;94.90
40932;DHT22;36257;46.052;12.540;2023-04-03T02:04:14;8.90;94.90
40932;DHT22;36257;46.052;12.540;2023-04-03T02:06:39;8.90;94.90
40932;DHT22;36257;46.052;12.540;2023-04-03T02:09:05;8.90;95.10
40932;DHT22;36257;46.052;12.540;2023-04-03T02:11:32;8.90;95.50
40932;DHT22;36257;46.052;12.540;2023-04-03T02:13:57;8.90;95.60
40932;DHT22;36257;46.052;12.540;2023-04-03T02:16:23;8.80;95.80
40932;DHT22;36257;46.052;12.540;2023-04-03T02:18:49;8.70;96.10
40932;DHT22;36257;46.052;12.540;2023-04-03T02:21:15;8.70;96.20
40932;DHT22;36257;46.052;12.540;2023-04-03T02:23:41;8.70;96.40
40932;DHT22;36257;46.052;12.540;2023-04-03T02:26:11;8.70;96.40
40932;DHT22;36257;46.052;12.540;2023-04-03T02:28:37;8.70;96.30
40932;DHT22;36257;46.052;12.540;2023-04-03T02:31:04;8.80;96.40
40932;DHT22;36257;46.052;12.540;2023-04-03T02:33:32;8.70;96.70
40932;DHT22;36257;46.052;12.540;2023-04-03T02:35:58;8.70;97.00
40932;DHT22;36257;46.052;12.540;2023-04-03T02:38:24;8.70;97.10
40932;DHT22;36257;46.052;12.540;2023-04-03T02:40:51;8.70;96.90
40932;DHT22;36257;46.052;12.540;2023-04-03T02:43:17;8.70;96.30
40932;DHT22;36257;46.052;12.540;2023-04-03T02:45:43;8.60;96.60
40932;DHT22;36257;46.052;12.540;2023-04-03T02:48:09;8.60;97.00
40932;DHT22;36257;46.052;12.540;2023-04-03T02:50:35;8.60;97.00
40932;DHT22;36257;46.052;12.540;2023-04-03T02:53:01;8.50;97.10
40932;DHT22;36257;46.052;12.540;2023-04-03T02:55:26;8.50;96.90
40932;DHT22;36257;46.052;12.540;2023-04-03T02:57:52;8.60;96.90
40932;DHT22;36257;46.052;12.540;2023-04-03T03:00:18;8.60;96.70
40932;DHT22;36257;46.052;12.540;2023-04-03T03:02:44;8.60;96.90
40932;DHT22;36257;46.052;12.540;2023-04-03T03:05:09;8.60;96.40
40932;DHT22;36257;46.052;12.540;2023-04-03T03:07:35;8.50;96.20
40932;DHT22;36257;46.052;12.540;2023-04-03T03:10:01;8.40;96.80
40932;DHT22;36257;46.052;12.540;2023-04-03T03:12:26;8.30;97.30
40932;DHT22;36257;46.052;12.540;2023-04-03T03:14:52;8.30;97.30
40932;DHT22;36257;46.052;12.540;2023-04-03T03:17:17;8.30;97.40
40932;DHT22;36257;46.052;12.540;2023-04-03T03:19:43;8.20;97.90
40932;DHT22;36257;46.052;12.540;2023-04-03T03:22:09;8.20;98.10
40932;DHT22;36257;46.052;12.540;2023-04-03T03:24:35;8.30;98.30
40932;DHT22;36257;46.052;12.540;2023-04-03T03:27:02;8.30;98.20
40932;DHT22;36257;46.052;12.540;2023-04-03T03:29:27;8.40;97.90
40932;DHT22;36257;46.052;12.540;2023-04-03T03:31:53;8.40;97.60
40932;DHT22;36257;46.052;12.540;2023-04-03T03:34:19;8.40;97.20
40932;DHT22;36257;46.052;12.540;2023-04-03T03:36:45;8.40;96.70
40932;DHT22;36257;46.052;12.540;2023-04-03T03:39:10;8.40;96.50
40932;DHT22;36257;46.052;12.540;2023-04-03T03:41:36;8.40;96.50
40932;DHT22;36257;46.052;12.540;2023-04-03T03:44:02;8.30;96.40
40932;DHT22;36257;46.052;12.540;2023-04-03T03:46:27;8.30;96.50
40932;DHT22;36257;46.052;12.540;2023-04-03T03:48:53;8.30;96.80
40932;DHT22;36257;46.052;12.540;2023-04-03T03:51:19;8.30;97.00
40932;DHT22;36257;46.052;12.540;2023-04-03T03:53:44;8.20;97.20
40932;DHT22;36257;46.052;12.540;2023-04-03T03:56:11;8.10;97.30
40932;DHT22;36257;46.052;12.540;2023-04-03T03:58:36;8.00;97.60
40932;DHT22;36257;46.052;12.540;2023-04-03T04:01:06;8.00;97.60
40932;DHT22;36257;46.052;12.540;2023-04-03T04:03:32;8.00;98.00
40932;DHT22;36257;46.052;12.540;2023-04-03T04:05:58;7.90;98.30
40932;DHT22;36257;46.052;12.540;2023-04-03T04:08:24;7.90;98.70
40932;DHT22;36257;46.052;12.540;2023-04-03T04:10:50;7.90;98.90
40932;DHT22;36257;46.052;12.540;2023-04-03T04:13:15;7.90;99.00
40932;DHT22;36257;46.052;12.540;2023-04-03T04:15:42;7.90;99.20
40932;DHT22;36257;46.052;12.540;2023-04-03T04:18:08;7.80;99.30
40932;DHT22;36257;46.052;12.540;2023-04-03T04:20:33;7.90;99.40
40932;DHT22;36257;46.052;12.540;2023-04-03T04:22:59;7.90;99.20
40932;DHT22;36257;46.052;12.540;2023-04-03T04:25:25;8.00;98.90
40932;DHT22;36257;46.052;12.540;2023-04-03T04:27:51;8.00;98.50
40932;DHT22;36257;46.052;12.540;2023-04-03T04:30:16;8.00;98.30
40932;DHT22;36257;46.052;12.540;2023-04-03T04:32:42;7.90;98.40
40932;DHT22;36257;46.052;12.540;2023-04-03T04:35:08;7.80;98.60
40932;DHT22;36257;46.052;12.540;2023-04-03T04:37:34;7.80;99.00
40932;DHT22;36257;46.052;12.540;2023-04-03T04:40:00;7.80;99.60
40932;DHT22;36257;46.052;12.540;2023-04-03T04:42:25;7.80;99.70
40932;DHT22;36257;46.052;12.540;2023-04-03T04:44:51;7.80;99.70
40932;DHT22;36257;46.052;12.540;2023-04-03T04:47:17;7.70;99.80
40932;DHT22;36257;46.052;12.540;2023-04-03T04:49:43;7.70;99.90
40932;DHT22;36257;46.052;12.540;2023-04-03T04:52:09;7.70;99.90
40932;DHT22;36257;46.052;12.540;2023-04-03T04:54:34;7.70;99.90
40932;DHT22;36257;46.052;12.540;2023-04-03T04:57:00;7.70;99.90
40932;DHT22;36257;46.052;12.540;2023-04-03T04:59:26;7.70;99.90
40932;DHT22;36257;46.052;12.540;2023-04-03T05:01:51;7.70;99.90
40932;DHT22;36257;46.052;12.540;2023-04-03T05:04:17;7.70;99.90
40932;DHT22;36257;46.052;12.540;2023-04-03T05:06:43;7.70;99.90
40932;DHT22;36257;46.052;12.540;2023-04-03T05:09:08;7.80;99.90
40932;DHT22;36257;46.052;12.540;2023-04-03T05:11:35;7.90;99.90
40932;DHT22;36257;46.052;12.540;2023-04-03T05:14:01;7.90;99.60
40932;DHT22;36257;46.052;12.540;2023-04-03T05:16:27;7.90;99.40
40932;DHT22;36257;46.052;12.540;2023-04-03T05:18:52;8.00;99.30
40932;DHT22;36257;46.052;12.540;2023-04-03T05:21:18;8.00;99.30
40932;DHT22;36257;46.052;12.540;2023-04-03T05:23:44;8.10;99.30
40932;DHT22;36257;46.052;12.540;2023-04-03T05:26:09;8.10;98.80
40932;DHT22;36257;46.052;12.540;2023-04-03T05:28:35;8.20;98.50
40932;DHT22;36257;46.052;12.540;2023-04-03T05:31:01;8.20;98.40
40932;DHT22;36257;46.052;12.540;2023-04-03T05:33:27;8.20;98.50
40932;DHT22;36257;46.052;12.540;2023-04-03T05:35:54;8.30;98.20
40932;DHT22;36257;46.052;12.540;2023-04-03T05:38:19;8.40;98.20
40932;DHT22;36257;46.052;12.540;2023-04-03T05:40:45;8.40;98.10
40932;DHT22;36257;46.052;12.540;2023-04-03T05:43:11;8.40;98.20
40932;DHT22;36257;46.052;12.540;2023-04-03T05:45:37;8.60;97.80
40932;DHT22;36257;46.052;12.540;2023-04-03T05:48:03;8.80;97.00
40932;DHT22;36257;46.052;12.540;2023-04-03T05:50:29;9.00;95.30
40932;DHT22;36257;46.052;12.540;2023-04-03T05:52:57;9.20;93.70
40932;DHT22;36257;46.052;12.540;2023-04-03T05:55:24;9.40;93.30
40932;DHT22;36257;46.052;12.540;2023-04-03T05:57:49;9.60;92.30
40932;DHT22;36257;46.052;12.540;2023-04-03T06:00:16;9.80;91.20
40932;DHT22;36257;46.052;12.540;2023-04-03T06:02:42;10.00;89.90
40932;DHT22;36257;46.052;12.540;2023-04-03T06:05:09;10.20;89.30
40932;DHT22;36257;46.052;12.540;2023-04-03T06:07:36;10.30;88.50
40932;DHT22;36257;46.052;12.540;2023-04-03T06:10:03;10.40;88.80
40932;DHT22;36257;46.052;12.540;2023-04-03T06:12:28;10.60;88.50
40932;DHT22;36257;46.052;12.540;2023-04-03T06:14:55;10.70;88.20
40932;DHT22;36257;46.052;12.540;2023-04-03T06:17:20;10.80;87.00
40932;DHT22;36257;46.052;12.540;2023-04-03T06:19:46;10.90;87.90
40932;DHT22;36257;46.052;12.540;2023-04-03T06:22:13;11.00;87.30
40932;DHT22;36257;46.052;12.540;2023-04-03T06:24:39;11.10;86.90
40932;DHT22;36257;46.052;12.540;2023-04-03T06:27:20;11.20;87.40
40932;DHT22;36257;46.052;12.540;2023-04-03T06:29:46;11.30;86.20
40932;DHT22;36257;46.052;12.540;2023-04-03T06:32:12;11.40;85.80
40932;DHT22;36257;46.052;12.540;2023-04-03T06:34:37;11.50;86.50
40932;DHT22;36257;46.052;12.540;2023-04-03T06:37:03;11.60;85.60
40932;DHT22;36257;46.052;12.540;2023-04-03T06:39:29;11.70;85.10
40932;DHT22;36257;46.052;12.540;2023-04-03T06:41:54;11.60;84.40
40932;DHT22;36257;46.052;12.540;2023-04-03T06:44:20;11.70;84.20
40932;DHT22;36257;46.052;12.540;2023-04-03T06:46:46;11.80;84.90
40932;DHT22;36257;46.052;12.540;2023-04-03T06:49:12;11.90;85.10
40932;DHT22;36257;46.052;12.540;2023-04-03T06:51:38;11.90;84.10
40932;DHT22;36257;46.052;12.540;2023-04-03T06:54:05;11.90;83.50
40932;DHT22;36257;46.052;12.540;2023-04-03T06:56:32;11.80;82.80
40932;DHT22;36257;46.052;12.540;2023-04-03T06:58:58;11.90;84.30
40932;DHT22;36257;46.052;12.540;2023-04-03T07:01:25;11.90;82.80
40932;DHT22;36257;46.052;12.540;2023-04-03T07:03:53;11.80;84.50
40932;DHT22;36257;46.052;12.540;2023-04-03T07:06:26;11.90;83.70
40932;DHT22;36257;46.052;12.540;2023-04-03T07:08:53;12.00;83.60
40932;DHT22;36257;46.052;12.540;2023-04-03T07:11:19;12.00;84.00
40932;DHT22;36257;46.052;12.540;2023-04-03T07:13:45;12.10;84.30
40932;DHT22;36257;46.052;12.540;2023-04-03T07:16:11;12.30;84.90
40932;DHT22;36257;46.052;12.540;2023-04-03T07:18:37;12.30;85.10
40932;DHT22;36257;46.052;12.540;2023-04-03T07:21:03;12.50;84.40
40932;DHT22;36257;46.052;12.540;2023-04-03T07:23:29;12.60;83.70
40932;DHT22;36257;46.052;12.540;2023-04-03T07:25:55;12.70;81.50
40932;DHT22;36257;46.052;12.540;2023-04-03T07:28:22;12.70;81.60
40932;DHT22;36257;46.052;12.540;2023-04-03T07:31:03;12.70;81.10
40932;DHT22;36257;46.052;12.540;2023-04-03T07:33:31;12.70;83.10
40932;DHT22;36257;46.052;12.540;2023-04-03T07:35:57;12.70;83.20
40932;DHT22;36257;46.052;12.540;2023-04-03T07:38:24;12.70;81.50
40932;DHT22;36257;46.052;12.540;2023-04-03T07:40:50;12.70;81.50
40932;DHT22;36257;46.052;12.540;2023-04-03T07:43:18;12.70;82.20
40932;DHT22;36257;46.052;12.540;2023-04-03T07:45:46;12.90;80.30
40932;DHT22;36257;46.052;12.540;2023-04-03T07:48:12;13.00;82.60
40932;DHT22;36257;46.052;12.540;2023-04-03T07:50:41;13.10;79.90
40932;DHT22;36257;46.052;12.540;2023-04-03T07:53:07;13.20;81.10
40932;DHT22;36257;46.052;12.540;2023-04-03T07:55:33;13.50;81.50
40932;DHT22;36257;46.052;12.540;2023-04-03T07:57:59;13.60;80.00
40932;DHT22;36257;46.052;12.540;2023-04-03T08:00:25;13.50;79.60
40932;DHT22;36257;46.052;12.540;2023-04-03T08:02:51;13.60;80.30
40932;DHT22;36257;46.052;12.540;2023-04-03T08:05:21;13.60;79.60
40932;DHT22;36257;46.052;12.540;2023-04-03T08:07:47;13.40;80.10
40932;DHT22;36257;46.052;12.540;2023-04-03T08:10:13;13.60;79.40
40932;DHT22;36257;46.052;12.540;2023-04-03T08:12:39;13.80;79.10
40932;DHT22;36257;46.052;12.540;2023-04-03T08:15:06;13.90;78.90
40932;DHT22;36257;46.052;12.540;2023-04-03T08:17:32;13.90;77.10
40932;DHT22;36257;46.052;12.540;2023-04-03T08:19:58;14.00;76.50
40932;DHT22;36257;46.052;12.540;2023-04-03T08:22:23;13.70;77.60
40932;DHT22;36257;46.052;12.540;2023-04-03T08:24:49;13.80;79.10
40932;DHT22;36257;46.052;12.540;2023-04-03T08:27:15;13.90;79.80
40932;DHT22;36257;46.052;12.540;2023-04-03T08:29:41;14.20;77.90
40932;DHT22;36257;46.052;12.540;2023-04-03T08:32:07;14.30;77.10
40932;DHT22;36257;46.052;12.540;2023-04-03T08:34:33;14.40;75.70
40932;DHT22;36257;46.052;12.540;2023-04-03T08:37:00;14.40;77.20
40932;DHT22;36257;46.052;12.540;2023-04-03T08:39:27;14.20;76.20
40932;DHT22;36257;46.052;12.540;2023-04-03T08:41:58;14.20;76.20
40932;DHT22;36257;46.052;12.540;2023-04-03T08:49:42;14.90;76.10
40932;DHT22;36257;46.052;12.540;2023-04-03T08:52:55;15.00;74.50
40932;DHT22;36257;46.052;12.540;2023-04-03T08:58:09;15.50;74.00
40932;DHT22;36257;46.052;12.540;2023-04-03T09:00:51;15.20;72.50
40932;DHT22;36257;46.052;12.540;2023-04-03T09:03:19;15.20;72.30
40932;DHT22;36257;46.052;12.540;2023-04-03T09:11:25;15.40;71.90
40932;DHT22;36257;46.052;12.540;2023-04-03T09:13:58;15.50;72.60
40932;DHT22;36257;46.052;12.540;2023-04-03T09:16:32;16.00;74.20
40932;DHT22;36257;46.052;12.540;2023-04-03T09:21:57;16.30;70.90
40932;DHT22;36257;46.052;12.540;2023-04-03T09:24:24;16.50;69.20
40932;DHT22;36257;46.052;12.540;2023-04-03T09:29:23;16.30;68.70
40932;DHT22;36257;46.052;12.540;2023-04-03T09:31:50;16.20;70.60
40932;DHT22;36257;46.052;12.540;2023-04-03T09:34:37;16.00;68.60
40932;DHT22;36257;46.052;12.540;2023-04-03T09:37:05;16.00;69.60
40932;DHT22;36257;46.052;12.540;2023-04-03T09:39:33;16.30;72.10
40932;DHT22;36257;46.052;12.540;2023-04-03T09:42:21;16.70;70.00
40932;DHT22;36257;46.052;12.540;2023-04-03T09:44:59;17.10;69.30
40932;DHT22;36257;46.052;12.540;2023-04-03T09:52:39;16.90;67.50
40932;DHT22;36257;46.052;12.540;2023-04-03T09:55:08;17.00;70.00
40932;DHT22;36257;46.052;12.540;2023-04-03T09:57:34;17.40;68.90
40932;DHT22;36257;46.052;12.540;2023-04-03T10:00:01;17.60;68.50
40932;DHT22;36257;46.052;12.540;2023-04-03T10:02:40;18.00;67.70
40932;DHT22;36257;46.052;12.540;2023-04-03T10:05:32;18.50;68.80
40932;DHT22;36257;46.052;12.540;2023-04-03T10:10:42;18.70;64.70
40932;DHT22;36257;46.052;12.540;2023-04-03T10:13:12;18.40;63.70
40932;DHT22;36257;46.052;12.540;2023-04-03T10:15:50;18.50;65.80
40932;DHT22;36257;46.052;12.540;2023-04-03T10:21:47;18.70;63.60
40932;DHT22;36257;46.052;12.540;2023-04-03T10:34:35;19.20;62.10
40932;DHT22;36257;46.052;12.540;2023-04-03T10:39:48;18.40;63.10
40932;DHT22;36257;46.052;12.540;2023-04-03T10:54:00;19.20;62.40
40932;DHT22;36257;46.052;12.540;2023-04-03T10:58:58;20.10;60.80
40932;DHT22;36257;46.052;12.540;2023-04-03T11:01:35;20.20;61.80
40932;DHT22;36257;46.052;12.540;2023-04-03T11:04:04;20.10;60.40
40932;DHT22;36257;46.052;12.540;2023-04-03T11:09:27;20.00;61.70
40932;DHT22;36257;46.052;12.540;2023-04-03T11:12:02;20.10;60.70
40932;DHT22;36257;46.052;12.540;2023-04-03T11:14:35;20.10;58.80
40932;DHT22;36257;46.052;12.540;2023-04-03T11:17:14;20.20;57.70
40932;DHT22;36257;46.052;12.540;2023-04-03T11:20:31;20.00;61.00
40932;DHT22;36257;46.052;12.540;2023-04-03T11:22:39;19.90;61.00
40932;DHT22;36257;46.052;12.540;2023-04-03T11:27:48;20.00;57.60
40932;DHT22;36257;46.052;12.540;2023-04-03T11:35:27;19.60;61.30
40932;DHT22;36257;46.052;12.540;2023-04-03T11:37:54;19.70;60.30
40932;DHT22;36257;46.052;12.540;2023-04-03T11:40:24;20.00;60.00
40932;DHT22;36257;46.052;12.540;2023-04-03T11:43:07;20.20;58.20
40932;DHT22;36257;46.052;12.540;2023-04-03T11:45:52;20.60;59.50
40932;DHT22;36257;46.052;12.540;2023-04-03T11:50:57;20.90;57.40
40932;DHT22;36257;46.052;12.540;2023-04-03T11:53:27;20.70;57.40
40932;DHT22;36257;46.052;12.540;2023-04-03T11:55:56;20.70;58.40
40932;DHT22;36257;46.052;12.540;2023-04-03T12:01:12;21.10;53.80
40932;DHT22;36257;46.052;12.540;2023-04-03T12:04:06;21.30;57.80
40932;DHT22;36257;46.052;12.540;2023-04-03T12:08:57;21.20;54.60
40932;DHT22;36257;46.052;12.540;2023-04-03T12:11:30;21.20;55.40
40932;DHT22;36257;46.052;12.540;2023-04-03T12:16:26;21.00;55.30
40932;DHT22;36257;46.052;12.540;2023-04-03T12:29:21;20.90;52.20
40932;DHT22;36257;46.052;12.540;2023-04-03T12:46:11;20.90;55.30
40932;DHT22;36257;46.052;12.540;2023-04-03T12:48:52;21.40;54.50
40932;DHT22;36257;46.052;12.540;2023-04-03T12:51:33;22.10;54.10
40932;DHT22;36257;46.052;12.540;2023-04-03T12:54:03;22.50;50.00
40932;DHT22;36257;46.052;12.540;2023-04-03T12:56:38;22.80;51.40
40932;DHT22;36257;46.052;12.540;2023-04-03T12:59:21;23.10;52.60
40932;DHT22;36257;46.052;12.540;2023-04-03T13:02:00;22.90;49.60
40932;DHT22;36257;46.052;12.540;2023-04-03T13:04:31;22.50;50.90
40932;DHT22;36257;46.052;12.540;2023-04-03T13:06:57;22.20;50.40
40932;DHT22;36257;46.052;12.540;2023-04-03T13:09:30;21.80;49.70
40932;DHT22;36257;46.052;12.540;2023-04-03T13:11:59;21.50;52.70
40932;DHT22;36257;46.052;12.540;2023-04-03T13:14:27;21.10;50.70
40932;DHT22;36257;46.052;12.540;2023-04-03T13:16:54;21.10;51.40
40932;DHT22;36257;46.052;12.540;2023-04-03T13:19:23;21.10;51.80
40932;DHT22;36257;46.052;12.540;2023-04-03T13:21:49;21.20;51.10
40932;DHT22;36257;46.052;12.540;2023-04-03T13:24:18;20.80;52.00
40932;DHT22;36257;46.052;12.540;2023-04-03T13:26:44;21.10;50.90
40932;DHT22;36257;46.052;12.540;2023-04-03T13:29:26;21.30;51.70
40932;DHT22;36257;46.052;12.540;2023-04-03T13:31:54;21.30;49.20
40932;DHT22;36257;46.052;12.540;2023-04-03T13:34:22;21.20;49.80
40932;DHT22;36257;46.052;12.540;2023-04-03T13:39:30;21.10;49.40
40932;DHT22;36257;46.052;12.540;2023-04-03T13:41:59;21.30;50.30
40932;DHT22;36257;46.052;12.540;2023-04-03T13:44:35;21.40;49.40
40932;DHT22;36257;46.052;12.540;2023-04-03T13:49:39;21.30;50.30
40932;DHT22;36257;46.052;12.540;2023-04-03T13:52:31;21.00;49.80
40932;DHT22;36257;46.052;12.540;2023-04-03T13:55:19;20.50;48.50
40932;DHT22;36257;46.052;12.540;2023-04-03T14:02:57;20.20;52.90
40932;DHT22;36257;46.052;12.540;2023-04-03T14:05:23;19.90;49.90
40932;DHT22;36257;46.052;12.540;2023-04-03T14:07:50;19.80;51.80
40932;DHT22;36257;46.052;12.540;2023-04-03T14:10:17;19.90;53.40
40932;DHT22;36257;46.052;12.540;2023-04-03T14:12:43;19.70;51.30
40932;DHT22;36257;46.052;12.540;2023-04-03T14:15:27;19.10;50.90
40932;DHT22;36257;46.052;12.540;2023-04-03T14:17:55;18.80;51.40
40932;DHT22;36257;46.052;12.540;2023-04-03T14:20:24;18.20;51.90
40932;DHT22;36257;46.052;12.540;2023-04-03T14:22:51;18.00;52.10
40932;DHT22;36257;46.052;12.540;2023-04-03T14:25:18;17.80;53.30
40932;DHT22;36257;46.052;12.540;2023-04-03T14:27:47;17.90;53.80
40932;DHT22;36257;46.052;12.540;2023-04-03T14:30:24;17.90;53.00
40932;DHT22;36257;46.052;12.540;2023-04-03T14:32:51;18.00;51.70
40932;DHT22;36257;46.052;12.540;2023-04-03T14:35:17;18.10;54.10
40932;DHT22;36257;46.052;12.540;2023-04-03T14:37:45;18.00;52.50
40932;DHT22;36257;46.052;12.540;2023-04-03T14:40:22;18.10;52.40
40932;DHT22;36257;46.052;12.540;2023-04-03T14:42:48;17.90;53.40
40932;DHT22;36257;46.052;12.540;2023-04-03T14:45:15;17.80;50.90
40932;DHT22;36257;46.052;12.540;2023-04-03T14:47:52;17.80;53.80
40932;DHT22;36257;46.052;12.540;2023-04-03T14:50:24;17.70;54.00
40932;DHT22;36257;46.052;12.540;2023-04-03T14:52:52;17.50;52.30
40932;DHT22;36257;46.052;12.540;2023-04-03T14:55:22;17.20;53.10
40932;DHT22;36257;46.052;12.540;2023-04-03T14:57:48;16.80;52.30
40932;DHT22;36257;46.052;12.540;2023-04-03T15:00:20;16.60;53.90
40932;DHT22;36257;46.052;12.540;2023-04-03T15:02:46;16.50;54.60
40932;DHT22;36257;46.052;12.540;2023-04-03T15:05:13;16.50;56.60
40932;DHT22;36257;46.052;12.540;2023-04-03T15:07:42;16.50;54.70
40932;DHT22;36257;46.052;12.540;2023-04-03T15:12:41;16.70;56.40
40932;DHT22;36257;46.052;12.540;2023-04-03T15:15:07;16.50;56.20
40932;DHT22;36257;46.052;12.540;2023-04-03T15:17:34;16.30;56.80
40932;DHT22;36257;46.052;12.540;2023-04-03T15:20:00;16.00;56.20
40932;DHT22;36257;46.052;12.540;2023-04-03T15:22:26;15.80;57.10
40932;DHT22;36257;46.052;12.540;2023-04-03T15:24:52;15.80;58.50
40932;DHT22;36257;46.052;12.540;2023-04-03T15:27:18;15.80;58.60
40932;DHT22;36257;46.052;12.540;2023-04-03T15:29:44;15.60;58.10
40932;DHT22;36257;46.052;12.540;2023-04-03T15:32:11;15.40;57.80
40932;DHT22;36257;46.052;12.540;2023-04-03T15:34:37;15.10;57.90
40932;DHT22;36257;46.052;12.540;2023-04-03T15:37:03;14.80;58.20
40932;DHT22;36257;46.052;12.540;2023-04-03T15:39:29;14.80;60.10
40932;DHT22;36257;46.052;12.540;2023-04-03T15:41:55;14.80;59.60
40932;DHT22;36257;46.052;12.540;2023-04-03T15:44:22;14.70;59.50
40932;DHT22;36257;46.052;12.540;2023-04-03T15:46:48;14.70;60.80
40932;DHT22;36257;46.052;12.540;2023-04-03T15:49:17;14.70;60.40
40932;DHT22;36257;46.052;12.540;2023-04-03T15:51:43;14.70;60.80
40932;DHT22;36257;46.052;12.540;2023-04-03T15:54:09;14.70;58.90
40932;DHT22;36257;46.052;12.540;2023-04-03T15:56:34;14.50;60.00
40932;DHT22;36257;46.052;12.540;2023-04-03T15:59:00;14.60;60.40
40932;DHT22;36257;46.052;12.540;2023-04-03T16:01:26;14.60;60.50
40932;DHT22;36257;46.052;12.540;2023-04-03T16:03:52;14.70;60.60
40932;DHT22;36257;46.052;12.540;2023-04-03T16:06:18;14.70;59.70
40932;DHT22;36257;46.052;12.540;2023-04-03T16:08:44;14.50;60.20
40932;DHT22;36257;46.052;12.540;2023-04-03T16:11:11;14.50;61.40
40932;DHT22;36257;46.052;12.540;2023-04-03T16:13:36;14.50;60.00
40932;DHT22;36257;46.052;12.540;2023-04-03T16:16:03;14.40;60.00
40932;DHT22;36257;46.052;12.540;2023-04-03T16:18:29;14.40;60.30
40932;DHT22;36257;46.052;12.540;2023-04-03T16:20:55;14.30;59.80
40932;DHT22;36257;46.052;12.540;2023-04-03T16:23:22;14.40;59.90
40932;DHT22;36257;46.052;12.540;2023-04-03T16:25:48;14.40;60.30
40932;DHT22;36257;46.052;12.540;2023-04-03T16:28:15;14.40;60.90
40932;DHT22;36257;46.052;12.540;2023-04-03T16:30:43;14.30;60.90
40932;DHT22;36257;46.052;12.540;2023-04-03T16:33:10;14.20;59.70
40932;DHT22;36257;46.052;12.540;2023-04-03T16:35:37;14.10;59.60
40932;DHT22;36257;46.052;12.540;2023-04-03T16:38:02;13.80;60.20
40932;DHT22;36257;46.052;12.540;2023-04-03T16:40:28;13.70;61.00
40932;DHT22;36257;46.052;12.540;2023-04-03T16:42:54;13.60;60.60
40932;DHT22;36257;46.052;12.540;2023-04-03T16:45:20;13.50;61.20
40932;DHT22;36257;46.052;12.540;2023-04-03T16:47:46;13.60;61.20
40932;DHT22;36257;46.052;12.540;2023-04-03T16:50:11;13.50;60.80
40932;DHT22;36257;46.052;12.540;2023-04-03T16:52:37;13.40;61.10
40932;DHT22;36257;46.052;12.540;2023-04-03T16:55:03;13.50;61.00
40932;DHT22;36257;46.052;12.540;2023-04-03T16:57:29;13.50;60.60
40932;DHT22;36257;46.052;12.540;2023-04-03T16:59:55;13.40;60.30
40932;DHT22;36257;46.052;12.540;2023-04-03T17:02:21;13.30;61.30
40932;DHT22;36257;46.052;12.540;2023-04-03T17:04:50;13.20;62.20
40932;DHT22;36257;46.052;12.540;2023-04-03T17:07:17;13.10;61.50
40932;DHT22;36257;46.052;12.540;2023-04-03T17:09:42;13.10;61.40
40932;DHT22;36257;46.052;12.540;2023-04-03T17:12:08;13.00;62.10
40932;DHT22;36257;46.052;12.540;2023-04-03T17:14:34;13.00;61.30
40932;DHT22;36257;46.052;12.540;2023-04-03T17:17:00;13.00;61.50
40932;DHT22;36257;46.052;12.540;2023-04-03T17:19:25;12.90;61.80
40932;DHT22;36257;46.052;12.540;2023-04-03T17:21:52;12.80;62.40
40932;DHT22;36257;46.052;12.540;2023-04-03T17:24:17;12.80;62.40
40932;DHT22;36257;46.052;12.540;2023-04-03T17:26:43;12.70;62.80
40932;DHT22;36257;46.052;12.540;2023-04-03T17:29:09;12.60;62.40